createdAt,value
2017-01-27T00:00:46.411Z,1021.93
2017-01-27T00:01:59.656Z,1021.9
2017-01-27T00:03:12.674Z,1021.88
2017-01-27T00:04:25.314Z,1021.87
2017-01-27T00:05:38.367Z,1021.86
2017-01-27T00:06:51.387Z,1021.86
2017-01-27T00:08:04.405Z,1021.81
2017-01-27T00:09:17.054Z,1021.86
2017-01-27T00:10:29.674Z,1021.81
2017-01-27T00:11:42.742Z,1021.86
2017-01-27T00:12:55.383Z,1021.78
2017-01-27T00:14:08.408Z,1021.76
2017-01-27T00:15:21.451Z,1021.77
2017-01-27T00:16:34.504Z,1021.73
2017-01-27T00:17:47.543Z,1021.74
2017-01-27T00:19:00.571Z,1021.73
2017-01-27T00:20:13.618Z,1021.74
2017-01-27T00:21:26.676Z,1021.71
2017-01-27T00:22:39.731Z,1021.68
2017-01-27T00:23:52.630Z,1021.74
2017-01-27T00:25:04.876Z,1021.71
2017-01-27T00:26:17.495Z,1021.72
2017-01-27T00:27:30.125Z,1021.71
2017-01-27T00:28:43.166Z,1021.72
2017-01-27T00:29:56.183Z,1021.68
2017-01-27T00:31:09.200Z,1021.68
2017-01-27T00:32:21.471Z,1021.65
2017-01-27T00:33:34.488Z,1021.63
2017-01-27T00:34:47.523Z,1021.63
2017-01-27T00:36:00.534Z,1021.62
2017-01-27T00:37:13.180Z,1021.65
2017-01-27T00:38:25.426Z,1021.61
2017-01-27T00:39:38.422Z,1021.58
2017-01-27T00:40:51.427Z,1021.57
2017-01-27T00:42:04.039Z,1021.58
2017-01-27T00:43:16.265Z,1021.53
2017-01-27T00:44:29.307Z,1021.5
2017-01-27T00:45:42.356Z,1021.43
2017-01-27T00:46:55.374Z,1021.47
2017-01-27T00:48:08.418Z,1021.49
2017-01-27T00:49:21.469Z,1021.46
2017-01-27T00:50:34.491Z,1021.44
2017-01-27T00:51:47.506Z,1021.43
2017-01-27T00:53:00.170Z,1021.46
2017-01-27T00:54:13.190Z,1021.45
2017-01-27T00:55:26.243Z,1021.48
2017-01-27T00:56:39.293Z,1021.45
2017-01-27T00:57:51.941Z,1021.49
2017-01-27T00:59:04.957Z,1021.51
2017-01-27T01:00:17.980Z,1021.43
2017-01-27T01:01:31.023Z,1021.49
2017-01-27T01:02:44.040Z,1021.47
2017-01-27T01:03:56.665Z,1021.49
2017-01-27T01:05:09.332Z,1021.44
2017-01-27T01:06:21.983Z,1021.39
2017-01-27T01:07:34.220Z,1021.41
2017-01-27T01:08:47.278Z,1021.43
2017-01-27T01:10:00.349Z,1021.4
2017-01-27T01:11:12.999Z,1021.42
2017-01-27T01:12:25.640Z,1021.37
2017-01-27T01:13:38.664Z,1021.4
2017-01-27T01:14:51.696Z,1021.37
2017-01-27T01:16:04.403Z,1021.41
2017-01-27T01:17:17.049Z,1021.39
2017-01-27T01:18:30.094Z,1021.41
2017-01-27T01:19:42.347Z,1021.41
2017-01-27T01:20:55.383Z,1021.34
2017-01-27T01:22:08.409Z,1021.43
2017-01-27T01:23:21.425Z,1021.39
2017-01-27T01:24:34.424Z,1021.37
2017-01-27T01:25:47.067Z,1021.44
2017-01-27T01:27:00.084Z,1021.4
2017-01-27T01:28:12.736Z,1021.38
2017-01-27T01:29:25.379Z,1021.37
2017-01-27T01:30:38.404Z,1021.29
2017-01-27T01:31:51.420Z,1021.29
2017-01-27T01:33:04.091Z,1021.23
2017-01-27T01:34:17.133Z,1021.23
2017-01-27T01:35:30.164Z,1021.24
2017-01-27T01:36:43.180Z,1021.26
2017-01-27T01:37:56.228Z,1021.26
2017-01-27T01:39:08.894Z,1021.28
2017-01-27T01:40:21.163Z,1021.27
2017-01-27T01:41:33.045Z,1021.21
2017-01-27T01:42:46.062Z,1021.22
2017-01-27T01:43:59.081Z,1021.18
2017-01-27T01:45:11.326Z,1021.18
2017-01-27T01:46:24.401Z,1021.19
2017-01-27T01:47:37.419Z,1021.18
2017-01-27T01:48:50.422Z,1021.14
2017-01-27T01:50:03.059Z,1021.15
2017-01-27T01:51:16.094Z,1021.21
2017-01-27T01:52:29.127Z,1021.13
2017-01-27T01:53:42.149Z,1021.19
2017-01-27T01:54:55.169Z,1021.11
2017-01-27T01:56:07.818Z,1021.13
2017-01-27T01:57:20.863Z,1021.12
2017-01-27T01:58:33.560Z,1021.13
2017-01-27T01:59:46.602Z,1021.12
2017-01-27T02:00:59.621Z,1021.09
2017-01-27T02:02:12.123Z,1021.11
2017-01-27T02:03:25.185Z,1021.13
2017-01-27T02:04:38.190Z,1021.11
2017-01-27T02:05:51.211Z,1021.08
2017-01-27T02:07:03.855Z,1021.08
2017-01-27T02:08:16.520Z,1021.08
2017-01-27T02:09:29.173Z,1021.08
2017-01-27T02:10:41.865Z,1021.08
2017-01-27T02:11:54.871Z,1021.07
2017-01-27T02:13:07.891Z,1021
2017-01-27T02:14:20.921Z,1020.98
2017-01-27T02:15:33.553Z,1020.92
2017-01-27T02:16:46.588Z,1020.93
2017-01-27T02:17:59.269Z,1020.86
2017-01-27T02:19:12.312Z,1020.89
2017-01-27T02:20:25.332Z,1020.88
2017-01-27T02:21:37.595Z,1020.87
2017-01-27T02:22:50.599Z,1020.89
2017-01-27T02:24:03.651Z,1020.87
2017-01-27T02:25:16.337Z,1020.8
2017-01-27T02:26:29.341Z,1020.82
2017-01-27T02:27:42.363Z,1020.78
2017-01-27T02:28:55.381Z,1020.78
2017-01-27T02:30:08.395Z,1020.77
2017-01-27T02:31:21.446Z,1020.73
2017-01-27T02:32:34.117Z,1020.68
2017-01-27T02:33:47.138Z,1020.7
2017-01-27T02:35:00.417Z,1020.64
2017-01-27T02:36:13.429Z,1020.62
2017-01-27T02:37:26.467Z,1020.61
2017-01-27T02:38:39.547Z,1020.67
2017-01-27T02:39:52.221Z,1020.68
2017-01-27T02:41:05.259Z,1020.66
2017-01-27T02:42:17.902Z,1020.63
2017-01-27T02:43:30.910Z,1020.66
2017-01-27T02:44:43.958Z,1020.66
2017-01-27T02:45:56.601Z,1020.61
2017-01-27T02:47:09.620Z,1020.64
2017-01-27T02:48:21.913Z,1020.67
2017-01-27T02:49:34.960Z,1020.69
2017-01-27T02:50:47.605Z,1020.65
2017-01-27T02:52:00.223Z,1020.65
2017-01-27T02:53:12.488Z,1020.65
2017-01-27T02:54:25.493Z,1020.66
2017-01-27T02:55:38.543Z,1020.6
2017-01-27T02:56:51.585Z,1020.61
2017-01-27T02:58:04.621Z,1020.58
2017-01-27T02:59:17.676Z,1020.58
2017-01-27T03:00:30.697Z,1020.56
2017-01-27T03:01:43.773Z,1020.53
2017-01-27T03:02:56.793Z,1020.52
2017-01-27T03:04:09.835Z,1020.47
2017-01-27T03:05:22.484Z,1020.5
2017-01-27T03:06:35.507Z,1020.49
2017-01-27T03:07:48.523Z,1020.5
2017-01-27T03:09:01.546Z,1020.46
2017-01-27T03:10:14.189Z,1020.46
2017-01-27T03:11:27.207Z,1020.43
2017-01-27T03:12:40.261Z,1020.38
2017-01-27T03:13:53.279Z,1020.42
2017-01-27T03:15:06.298Z,1020.41
2017-01-27T03:16:19.343Z,1020.4
2017-01-27T03:17:31.973Z,1020.38
2017-01-27T03:18:45.035Z,1020.41
2017-01-27T03:19:57.683Z,1020.36
2017-01-27T03:21:10.702Z,1020.33
2017-01-27T03:22:23.366Z,1020.39
2017-01-27T03:23:36.395Z,1020.4
2017-01-27T03:24:48.668Z,1020.37
2017-01-27T03:26:01.683Z,1020.4
2017-01-27T03:27:14.362Z,1020.42
2017-01-27T03:28:27.013Z,1020.45
2017-01-27T03:29:40.292Z,1020.45
2017-01-27T03:30:53.399Z,1020.45
2017-01-27T03:32:06.441Z,1020.45
2017-01-27T03:33:18.310Z,1020.44
2017-01-27T03:34:31.335Z,1020.42
2017-01-27T03:35:43.974Z,1020.38
2017-01-27T03:36:56.603Z,1020.38
2017-01-27T03:38:09.620Z,1020.34
2017-01-27T03:39:22.244Z,1020.31
2017-01-27T03:40:34.857Z,1020.29
2017-01-27T03:41:47.483Z,1020.31
2017-01-27T03:43:00.109Z,1020.29
2017-01-27T03:44:12.784Z,1020.28
2017-01-27T03:45:25.466Z,1020.27
2017-01-27T03:46:38.096Z,1020.26
2017-01-27T03:47:51.144Z,1020.23
2017-01-27T03:49:04.209Z,1020.28
2017-01-27T03:50:16.862Z,1020.27
2017-01-27T03:51:29.500Z,1020.26
2017-01-27T03:52:42.151Z,1020.35
2017-01-27T03:53:55.191Z,1020.3
2017-01-27T03:55:07.423Z,1020.32
2017-01-27T03:56:20.061Z,1020.33
2017-01-27T03:57:32.331Z,1020.26
2017-01-27T03:58:44.963Z,1020.27
2017-01-27T03:59:57.627Z,1020.27
2017-01-27T04:01:10.234Z,1020.28
2017-01-27T04:02:22.493Z,1020.26
2017-01-27T04:03:35.109Z,1020.26
2017-01-27T04:04:47.730Z,1020.25
2017-01-27T04:06:00.750Z,1020.28
2017-01-27T04:07:13.781Z,1020.21
2017-01-27T04:08:26.797Z,1020.23
2017-01-27T04:09:39.424Z,1020.23
2017-01-27T04:10:52.078Z,1020.26
2017-01-27T04:12:05.106Z,1020.31
2017-01-27T04:13:18.148Z,1020.27
2017-01-27T04:14:31.153Z,1020.25
2017-01-27T04:15:44.186Z,1020.23
2017-01-27T04:16:57.223Z,1020.19
2017-01-27T04:18:10.262Z,1020.27
2017-01-27T04:19:23.273Z,1020.24
2017-01-27T04:20:36.310Z,1020.25
2017-01-27T04:21:48.972Z,1020.23
2017-01-27T04:23:01.997Z,1020.21
2017-01-27T04:24:15.032Z,1020.21
2017-01-27T04:25:27.663Z,1020.21
2017-01-27T04:26:40.711Z,1020.23
2017-01-27T04:27:53.759Z,1020.2
2017-01-27T04:29:06.778Z,1020.22
2017-01-27T04:30:19.412Z,1020.21
2017-01-27T04:31:32.433Z,1020.21
2017-01-27T04:32:45.061Z,1020.15
2017-01-27T04:33:58.065Z,1020.2
2017-01-27T04:35:11.092Z,1020.24
2017-01-27T04:36:23.734Z,1020.22
2017-01-27T04:37:36.361Z,1020.23
2017-01-27T04:38:49.395Z,1020.2
2017-01-27T04:40:02.041Z,1020.15
2017-01-27T04:41:14.678Z,1020.16
2017-01-27T04:42:27.696Z,1020.12
2017-01-27T04:43:40.709Z,1020.14
2017-01-27T04:44:53.746Z,1020.1
2017-01-27T04:46:06.657Z,1020.09
2017-01-27T04:47:19.316Z,1020.11
2017-01-27T04:48:32.357Z,1020.11
2017-01-27T04:49:45.007Z,1020.04
2017-01-27T04:50:58.054Z,1020.04
2017-01-27T04:52:11.070Z,1020.04
2017-01-27T04:53:23.733Z,1019.98
2017-01-27T04:54:36.768Z,1019.96
2017-01-27T04:55:49.764Z,1019.94
2017-01-27T04:57:02.783Z,1019.9
2017-01-27T04:58:15.799Z,1019.88
2017-01-27T04:59:28.421Z,1019.88
2017-01-27T05:00:41.419Z,1019.88
2017-01-27T05:01:54.061Z,1019.81
2017-01-27T05:03:06.338Z,1019.82
2017-01-27T05:04:19.359Z,1019.81
2017-01-27T05:05:32.375Z,1019.86
2017-01-27T05:06:45.423Z,1019.86
2017-01-27T05:07:58.095Z,1019.92
2017-01-27T05:09:11.138Z,1019.86
2017-01-27T05:10:23.385Z,1019.91
2017-01-27T05:11:36.408Z,1019.92
2017-01-27T05:12:49.424Z,1019.81
2017-01-27T05:14:02.456Z,1019.82
2017-01-27T05:15:15.123Z,1019.85
2017-01-27T05:16:28.169Z,1019.85
2017-01-27T05:17:40.787Z,1019.86
2017-01-27T05:18:53.437Z,1019.83
2017-01-27T05:20:05.729Z,1019.83
2017-01-27T05:21:18.776Z,1019.81
2017-01-27T05:22:31.795Z,1019.81
2017-01-27T05:23:44.830Z,1019.83
2017-01-27T05:24:57.842Z,1019.82
2017-01-27T05:26:10.877Z,1019.77
2017-01-27T05:27:23.529Z,1019.72
2017-01-27T05:28:36.540Z,1019.77
2017-01-27T05:29:49.444Z,1019.74
2017-01-27T05:31:02.492Z,1019.79
2017-01-27T05:32:15.513Z,1019.7
2017-01-27T05:33:28.550Z,1019.72
2017-01-27T05:34:41.567Z,1019.73
2017-01-27T05:35:54.216Z,1019.72
2017-01-27T05:37:06.879Z,1019.7
2017-01-27T05:38:19.931Z,1019.73
2017-01-27T05:39:32.959Z,1019.69
2017-01-27T05:40:46.008Z,1019.7
2017-01-27T05:41:58.656Z,1019.63
2017-01-27T05:43:11.297Z,1019.63
2017-01-27T05:44:24.321Z,1019.63
2017-01-27T05:45:37.340Z,1019.6
2017-01-27T05:46:50.338Z,1019.56
2017-01-27T05:48:03.362Z,1019.52
2017-01-27T05:49:16.405Z,1019.56
2017-01-27T05:50:29.049Z,1019.45
2017-01-27T05:51:42.075Z,1019.48
2017-01-27T05:52:55.137Z,1019.45
2017-01-27T05:54:08.162Z,1019.5
2017-01-27T05:55:21.208Z,1019.47
2017-01-27T05:56:34.224Z,1019.45
2017-01-27T05:57:47.255Z,1019.42
2017-01-27T05:58:59.884Z,1019.44
2017-01-27T06:00:12.155Z,1019.41
2017-01-27T06:01:25.212Z,1019.39
2017-01-27T06:02:38.305Z,1019.42
2017-01-27T06:03:51.311Z,1019.4
2017-01-27T06:05:04.322Z,1019.41
2017-01-27T06:06:17.346Z,1019.42
2017-01-27T06:07:29.972Z,1019.43
2017-01-27T06:08:43.037Z,1019.43
2017-01-27T06:09:56.051Z,1019.43
2017-01-27T06:11:08.697Z,1019.47
2017-01-27T06:12:21.739Z,1019.39
2017-01-27T06:13:34.375Z,1019.41
2017-01-27T06:14:47.381Z,1019.46
2017-01-27T06:16:00.016Z,1019.44
2017-01-27T06:17:12.682Z,1019.45
2017-01-27T06:18:25.330Z,1019.43
2017-01-27T06:19:38.376Z,1019.38
2017-01-27T06:20:51.411Z,1019.39
2017-01-27T06:22:04.044Z,1019.39
2017-01-27T06:23:15.910Z,1019.4
2017-01-27T06:24:28.912Z,1019.4
2017-01-27T06:25:41.931Z,1019.47
2017-01-27T06:26:54.172Z,1019.45
2017-01-27T06:28:07.218Z,1019.41
2017-01-27T06:29:19.848Z,1019.43
2017-01-27T06:30:32.865Z,1019.45
2017-01-27T06:31:45.884Z,1019.45
2017-01-27T06:32:58.927Z,1019.42
2017-01-27T06:34:11.971Z,1019.45
2017-01-27T06:35:24.618Z,1019.45
2017-01-27T06:36:37.274Z,1019.46
2017-01-27T06:37:49.928Z,1019.44
2017-01-27T06:39:02.585Z,1019.44
2017-01-27T06:40:14.859Z,1019.44
2017-01-27T06:41:27.508Z,1019.5
2017-01-27T06:42:40.518Z,1019.49
2017-01-27T06:43:53.566Z,1019.51
2017-01-27T06:45:06.598Z,1019.51
2017-01-27T06:46:18.834Z,1019.54
2017-01-27T06:47:31.902Z,1019.56
2017-01-27T06:48:44.920Z,1019.57
2017-01-27T06:49:57.970Z,1019.58
2017-01-27T06:51:09.839Z,1019.59
2017-01-27T06:52:22.485Z,1019.63
2017-01-27T06:53:35.148Z,1019.57
2017-01-27T06:54:48.155Z,1019.57
2017-01-27T06:56:01.153Z,1019.56
2017-01-27T06:57:13.795Z,1019.51
2017-01-27T06:58:26.412Z,1019.47
2017-01-27T06:59:39.444Z,1019.45
2017-01-27T07:00:52.478Z,1019.48
2017-01-27T07:02:05.478Z,1019.47
2017-01-27T07:03:18.127Z,1019.47
2017-01-27T07:04:31.144Z,1019.44
2017-01-27T07:05:43.766Z,1019.47
2017-01-27T07:06:56.395Z,1019.44
2017-01-27T07:08:09.061Z,1019.44
2017-01-27T07:09:21.320Z,1019.43
2017-01-27T07:10:34.370Z,1019.43
2017-01-27T07:11:47.400Z,1019.37
2017-01-27T07:12:59.645Z,1019.44
2017-01-27T07:14:12.686Z,1019.36
2017-01-27T07:15:25.724Z,1019.37
2017-01-27T07:16:38.731Z,1019.41
2017-01-27T07:17:51.747Z,1019.37
2017-01-27T07:19:04.364Z,1019.35
2017-01-27T07:20:17.410Z,1019.32
2017-01-27T07:21:30.040Z,1019.32
2017-01-27T07:22:43.041Z,1019.3
2017-01-27T07:23:56.081Z,1019.3
2017-01-27T07:25:08.717Z,1019.33
2017-01-27T07:26:21.352Z,1019.33
2017-01-27T07:27:34.394Z,1019.33
2017-01-27T07:28:47.414Z,1019.36
2017-01-27T07:30:00.053Z,1019.42
2017-01-27T07:31:12.731Z,1019.42
2017-01-27T07:32:25.403Z,1019.47
2017-01-27T07:33:38.038Z,1019.51
2017-01-27T07:34:51.074Z,1019.5
2017-01-27T07:36:04.099Z,1019.48
2017-01-27T07:37:17.102Z,1019.53
2017-01-27T07:38:29.728Z,1019.52
2017-01-27T07:39:42.752Z,1019.54
2017-01-27T07:40:55.015Z,1019.54
2017-01-27T07:42:08.048Z,1019.54
2017-01-27T07:43:20.715Z,1019.57
2017-01-27T07:44:33.731Z,1019.61
2017-01-27T07:45:46.407Z,1019.63
2017-01-27T07:46:59.446Z,1019.62
2017-01-27T07:48:11.697Z,1019.61
2017-01-27T07:49:24.698Z,1019.56
2017-01-27T07:50:37.740Z,1019.6
2017-01-27T07:51:50.756Z,1019.65
2017-01-27T07:53:03.036Z,1019.63
2017-01-27T07:54:15.320Z,1019.62
2017-01-27T07:55:28.349Z,1019.63
2017-01-27T07:56:40.972Z,1019.68
2017-01-27T07:57:54.014Z,1019.62
2017-01-27T07:59:07.029Z,1019.67
2017-01-27T08:00:20.057Z,1019.66
2017-01-27T08:01:32.692Z,1019.67
2017-01-27T08:02:45.724Z,1019.68
2017-01-27T08:03:58.759Z,1019.7
2017-01-27T08:05:11.391Z,1019.67
2017-01-27T08:06:24.034Z,1019.68
2017-01-27T08:07:37.063Z,1019.62
2017-01-27T08:08:49.699Z,1019.62
2017-01-27T08:10:02.768Z,1019.54
2017-01-27T08:11:15.387Z,1019.55
2017-01-27T08:12:28.464Z,1019.56
2017-01-27T08:13:41.137Z,1019.6
2017-01-27T08:14:54.173Z,1019.59
2017-01-27T08:16:06.804Z,1019.66
2017-01-27T08:17:19.417Z,1019.68
2017-01-27T08:18:32.417Z,1019.74
2017-01-27T08:19:45.041Z,1019.7
2017-01-27T08:20:58.061Z,1019.72
2017-01-27T08:22:10.704Z,1019.71
2017-01-27T08:23:23.752Z,1019.74
2017-01-27T08:24:36.774Z,1019.8
2017-01-27T08:25:49.793Z,1019.78
2017-01-27T08:27:02.844Z,1019.79
2017-01-27T08:28:15.483Z,1019.82
2017-01-27T08:29:28.125Z,1019.79
2017-01-27T08:30:40.828Z,1019.82
2017-01-27T08:31:53.852Z,1019.83
2017-01-27T08:33:06.888Z,1019.83
2017-01-27T08:34:19.922Z,1019.82
2017-01-27T08:35:32.915Z,1019.81
2017-01-27T08:36:45.909Z,1019.83
2017-01-27T08:37:58.154Z,1019.84
2017-01-27T08:39:11.203Z,1019.71
2017-01-27T08:40:24.246Z,1019.73
2017-01-27T08:41:37.270Z,1019.72
2017-01-27T08:42:49.913Z,1019.73
2017-01-27T08:44:02.930Z,1019.74
2017-01-27T08:45:15.576Z,1019.69
2017-01-27T08:46:28.597Z,1019.65
2017-01-27T08:47:41.647Z,1019.66
2017-01-27T08:48:54.656Z,1019.64
2017-01-27T08:50:07.310Z,1019.67
2017-01-27T08:51:20.315Z,1019.65
2017-01-27T08:52:33.354Z,1019.71
2017-01-27T08:53:46.393Z,1019.67
2017-01-27T08:54:59.420Z,1019.66
2017-01-27T08:56:12.439Z,1019.69
2017-01-27T08:57:25.434Z,1019.68
2017-01-27T08:58:38.462Z,1019.65
2017-01-27T08:59:51.457Z,1019.61
2017-01-27T09:01:04.464Z,1019.55
2017-01-27T09:02:15.970Z,1019.54
2017-01-27T09:03:28.631Z,1019.56
2017-01-27T09:04:41.688Z,1019.53
2017-01-27T09:05:54.708Z,1019.57
2017-01-27T09:07:07.354Z,1019.55
2017-01-27T09:08:20.000Z,1019.61
2017-01-27T09:09:32.647Z,1019.56
2017-01-27T09:10:45.694Z,1019.58
2017-01-27T09:11:58.711Z,1019.55
2017-01-27T09:13:11.352Z,1019.56
2017-01-27T09:14:24.406Z,1019.58
2017-01-27T09:15:37.419Z,1019.52
2017-01-27T09:16:50.050Z,1019.49
2017-01-27T09:18:03.040Z,1019.48
2017-01-27T09:19:15.707Z,1019.45
2017-01-27T09:20:28.763Z,1019.47
2017-01-27T09:21:41.803Z,1019.4
2017-01-27T09:22:54.832Z,1019.41
2017-01-27T09:24:07.098Z,1019.4
2017-01-27T09:25:18.985Z,1019.36
2017-01-27T09:26:31.616Z,1019.37
2017-01-27T09:27:44.635Z,1019.38
2017-01-27T09:28:57.256Z,1019.42
2017-01-27T09:30:09.505Z,1019.44
2017-01-27T09:31:22.511Z,1019.4
2017-01-27T09:32:34.793Z,1019.4
2017-01-27T09:33:47.815Z,1019.44
2017-01-27T09:35:00.832Z,1019.49
2017-01-27T09:36:13.499Z,1019.51
2017-01-27T09:37:26.527Z,1019.56
2017-01-27T09:38:39.225Z,1019.58
2017-01-27T09:39:52.246Z,1019.57
2017-01-27T09:41:05.278Z,1019.56
2017-01-27T09:42:17.913Z,1019.51
2017-01-27T09:43:30.928Z,1019.54
2017-01-27T09:44:43.620Z,1019.55
2017-01-27T09:45:56.265Z,1019.58
2017-01-27T09:47:08.945Z,1019.6
2017-01-27T09:48:21.587Z,1019.6
2017-01-27T09:49:34.226Z,1019.56
2017-01-27T09:50:47.254Z,1019.58
2017-01-27T09:51:59.904Z,1019.53
2017-01-27T09:53:12.150Z,1019.51
2017-01-27T09:54:25.192Z,1019.42
2017-01-27T09:55:38.188Z,1019.45
2017-01-27T09:56:51.186Z,1019.4
2017-01-27T09:58:03.854Z,1019.35
2017-01-27T09:59:16.492Z,1019.3
2017-01-27T10:00:29.524Z,1019.32
2017-01-27T10:01:42.146Z,1019.32
2017-01-27T10:02:54.805Z,1019.35
2017-01-27T10:04:07.480Z,1019.37
2017-01-27T10:05:20.504Z,1019.36
2017-01-27T10:06:33.553Z,1019.31
2017-01-27T10:07:46.556Z,1019.3
2017-01-27T10:08:59.224Z,1019.32
2017-01-27T10:10:11.092Z,1019.27
2017-01-27T10:11:23.716Z,1019.27
2017-01-27T10:12:36.334Z,1019.21
2017-01-27T10:13:49.356Z,1019.2
2017-01-27T10:15:01.972Z,1019.13
2017-01-27T10:16:14.621Z,1019.12
2017-01-27T10:17:27.269Z,1019.1
2017-01-27T10:18:39.779Z,1019.12
2017-01-27T10:19:52.807Z,1019.12
2017-01-27T10:21:05.880Z,1019.13
2017-01-27T10:22:18.577Z,1019.15
2017-01-27T10:23:31.636Z,1019.16
2017-01-27T10:24:44.660Z,1019.21
2017-01-27T10:25:56.902Z,1019.17
2017-01-27T10:27:09.157Z,1019.12
2017-01-27T10:28:22.182Z,1019.11
2017-01-27T10:29:35.228Z,1019.09
2017-01-27T10:30:48.264Z,1019.04
2017-01-27T10:32:00.897Z,1019.03
2017-01-27T10:33:13.151Z,1018.98
2017-01-27T10:34:25.838Z,1019.05
2017-01-27T10:35:38.880Z,1018.99
2017-01-27T10:36:51.899Z,1019.02
2017-01-27T10:38:04.551Z,1019.02
2017-01-27T10:39:16.794Z,1019.05
2017-01-27T10:40:30.062Z,1019.04
2017-01-27T10:41:43.085Z,1019.04
2017-01-27T10:42:56.103Z,1019.04
2017-01-27T10:44:09.126Z,1019.05
2017-01-27T10:45:22.165Z,1019.02
2017-01-27T10:46:34.800Z,1019.05
2017-01-27T10:47:47.441Z,1019.03
2017-01-27T10:49:00.074Z,1018.98
2017-01-27T10:50:12.726Z,1018.94
2017-01-27T10:51:25.741Z,1018.93
2017-01-27T10:52:38.795Z,1018.93
2017-01-27T10:53:51.844Z,1018.9
2017-01-27T10:55:04.879Z,1018.9
2017-01-27T10:56:17.503Z,1019
2017-01-27T10:57:30.532Z,1018.91
2017-01-27T10:58:43.603Z,1018.92
2017-01-27T10:59:56.244Z,1018.91
2017-01-27T11:01:08.889Z,1018.85
2017-01-27T11:02:21.529Z,1018.83
2017-01-27T11:03:34.577Z,1018.87
2017-01-27T11:04:47.628Z,1018.88
2017-01-27T11:06:00.702Z,1018.86
2017-01-27T11:07:12.965Z,1018.88
2017-01-27T11:08:25.594Z,1018.75
2017-01-27T11:09:38.241Z,1018.73
2017-01-27T11:10:50.908Z,1018.74
2017-01-27T11:12:03.950Z,1018.75
2017-01-27T11:13:16.214Z,1018.7
2017-01-27T11:14:28.872Z,1018.69
2017-01-27T11:15:41.894Z,1018.7
2017-01-27T11:16:54.538Z,1018.69
2017-01-27T11:18:07.183Z,1018.68
2017-01-27T11:19:19.874Z,1018.72
2017-01-27T11:20:32.952Z,1018.75
2017-01-27T11:21:45.997Z,1018.74
2017-01-27T11:22:58.659Z,1018.69
2017-01-27T11:24:11.709Z,1018.67
2017-01-27T11:25:23.981Z,1018.63
2017-01-27T11:26:36.627Z,1018.67
2017-01-27T11:27:48.871Z,1018.65
2017-01-27T11:29:01.924Z,1018.7
2017-01-27T11:30:13.823Z,1018.69
2017-01-27T11:31:26.462Z,1018.72
2017-01-27T11:32:39.505Z,1018.67
2017-01-27T11:33:52.548Z,1018.64
2017-01-27T11:35:05.596Z,1018.67
2017-01-27T11:36:18.216Z,1018.6
2017-01-27T11:37:31.256Z,1018.55
2017-01-27T11:38:44.319Z,1018.52
2017-01-27T11:39:57.404Z,1018.49
2017-01-27T11:41:10.081Z,1018.48
2017-01-27T11:42:23.124Z,1018.45
2017-01-27T11:43:36.134Z,1018.52
2017-01-27T11:44:48.767Z,1018.49
2017-01-27T11:46:01.812Z,1018.53
2017-01-27T11:47:14.083Z,1018.5
2017-01-27T11:48:27.129Z,1018.44
2017-01-27T11:49:39.775Z,1018.4
2017-01-27T11:50:52.421Z,1018.41
2017-01-27T11:52:05.061Z,1018.4
2017-01-27T11:53:18.087Z,1018.38
2017-01-27T11:54:31.129Z,1018.38
2017-01-27T11:55:43.003Z,1018.31
2017-01-27T11:56:56.029Z,1018.36
2017-01-27T11:58:09.046Z,1018.37
2017-01-27T11:59:22.091Z,1018.4
2017-01-27T12:00:35.129Z,1018.38
2017-01-27T12:01:48.155Z,1018.35
2017-01-27T12:03:00.816Z,1018.37
2017-01-27T12:04:13.070Z,1018.32
2017-01-27T12:05:26.108Z,1018.33
2017-01-27T12:06:39.144Z,1018.29
2017-01-27T12:07:52.161Z,1018.28
2017-01-27T12:09:05.208Z,1018.37
2017-01-27T12:10:18.224Z,1018.37
2017-01-27T12:11:31.252Z,1018.35
2017-01-27T12:12:43.908Z,1018.4
2017-01-27T12:13:56.939Z,1018.36
2017-01-27T12:15:09.584Z,1018.37
2017-01-27T12:16:22.231Z,1018.34
2017-01-27T12:17:35.249Z,1018.34
2017-01-27T12:18:47.924Z,1018.3
2017-01-27T12:20:00.969Z,1018.25
2017-01-27T12:21:13.988Z,1018.33
2017-01-27T12:22:26.661Z,1018.28
2017-01-27T12:23:38.927Z,1018.33
2017-01-27T12:24:51.947Z,1018.3
2017-01-27T12:26:04.990Z,1018.31
2017-01-27T12:27:18.015Z,1018.32
2017-01-27T12:28:30.653Z,1018.27
2017-01-27T12:29:42.907Z,1018.29
2017-01-27T12:30:55.967Z,1018.3
2017-01-27T12:32:09.000Z,1018.29
2017-01-27T12:33:21.302Z,1018.37
2017-01-27T12:34:33.983Z,1018.36
2017-01-27T12:35:46.618Z,1018.34
2017-01-27T12:36:59.663Z,1018.3
2017-01-27T12:38:12.304Z,1018.32
2017-01-27T12:39:25.327Z,1018.25
2017-01-27T12:40:38.373Z,1018.24
2017-01-27T12:41:50.240Z,1018.25
2017-01-27T12:43:03.239Z,1018.22
2017-01-27T12:44:16.249Z,1018.19
2017-01-27T12:45:28.898Z,1018.16
2017-01-27T12:46:41.575Z,1018.13
2017-01-27T12:47:54.575Z,1018.19
2017-01-27T12:49:07.220Z,1018.21
2017-01-27T12:50:19.887Z,1018.19
2017-01-27T12:51:32.934Z,1018.2
2017-01-27T12:52:45.575Z,1018.16
2017-01-27T12:53:58.620Z,1018.14
2017-01-27T12:55:11.666Z,1018.18
2017-01-27T12:56:24.695Z,1018.17
2017-01-27T12:57:37.769Z,1018.18
2017-01-27T12:58:50.425Z,1018.17
2017-01-27T13:00:03.509Z,1018.14
2017-01-27T13:01:16.551Z,1018.18
2017-01-27T13:02:29.575Z,1018.13
2017-01-27T13:03:42.592Z,1018.11
2017-01-27T13:04:55.245Z,1018.07
2017-01-27T13:06:07.891Z,1018.07
2017-01-27T13:07:20.558Z,1018.04
2017-01-27T13:08:33.596Z,1018.03
2017-01-27T13:09:46.247Z,1018.05
2017-01-27T13:10:59.298Z,1018.07
2017-01-27T13:12:11.565Z,1018.08
2017-01-27T13:13:24.593Z,1018.06
2017-01-27T13:14:37.610Z,1018.03
2017-01-27T13:15:50.623Z,1018.02
2017-01-27T13:17:03.669Z,1018.06
2017-01-27T13:18:15.926Z,1018.01
2017-01-27T13:19:28.959Z,1018.04
2017-01-27T13:20:42.011Z,1018
2017-01-27T13:21:55.058Z,1017.97
2017-01-27T13:23:08.084Z,1017.93
2017-01-27T13:24:21.142Z,1017.88
2017-01-27T13:25:33.774Z,1017.87
2017-01-27T13:26:46.446Z,1017.82
2017-01-27T13:27:59.465Z,1017.86
2017-01-27T13:29:11.735Z,1017.9
2017-01-27T13:30:24.393Z,1017.87
2017-01-27T13:31:37.055Z,1017.93
2017-01-27T13:32:50.103Z,1017.95
2017-01-27T13:34:03.139Z,1017.94
2017-01-27T13:35:15.807Z,1017.93
2017-01-27T13:36:28.830Z,1017.97
2017-01-27T13:37:41.576Z,1017.91
2017-01-27T13:38:54.606Z,1017.95
2017-01-27T13:40:06.496Z,1017.89
2017-01-27T13:41:19.160Z,1017.91
2017-01-27T13:42:32.218Z,1017.89
2017-01-27T13:43:44.877Z,1017.93
2017-01-27T13:44:57.930Z,1017.92
2017-01-27T13:46:10.976Z,1017.9
2017-01-27T13:47:24.018Z,1017.9
2017-01-27T13:48:36.272Z,1017.89
2017-01-27T13:49:49.320Z,1017.89
2017-01-27T13:51:01.965Z,1017.92
2017-01-27T13:52:14.209Z,1017.91
2017-01-27T13:53:27.277Z,1017.96
2017-01-27T13:54:40.297Z,1017.95
2017-01-27T13:55:53.340Z,1017.94
2017-01-27T13:57:05.986Z,1017.93
2017-01-27T13:58:19.066Z,1017.91
2017-01-27T13:59:31.705Z,1017.93
2017-01-27T14:00:44.332Z,1017.98
2017-01-27T14:01:57.368Z,1017.97
2017-01-27T14:03:09.624Z,1018.01
2017-01-27T14:04:22.665Z,1017.97
2017-01-27T14:05:35.660Z,1017.98
2017-01-27T14:06:48.713Z,1017.93
2017-01-27T14:08:01.391Z,1017.92
2017-01-27T14:09:14.414Z,1017.93
2017-01-27T14:10:27.077Z,1017.96
2017-01-27T14:11:40.179Z,1017.93
2017-01-27T14:12:53.215Z,1017.92
2017-01-27T14:14:05.861Z,1017.96
2017-01-27T14:15:18.107Z,1017.89
2017-01-27T14:16:31.127Z,1017.95
2017-01-27T14:17:44.193Z,1017.92
2017-01-27T14:18:56.821Z,1018
2017-01-27T14:20:09.505Z,1017.93
2017-01-27T14:21:22.150Z,1017.97
2017-01-27T14:22:34.425Z,1017.92
2017-01-27T14:23:47.453Z,1017.88
2017-01-27T14:25:00.495Z,1017.88
2017-01-27T14:26:12.744Z,1017.9
2017-01-27T14:27:25.743Z,1017.86
2017-01-27T14:28:38.789Z,1017.83
2017-01-27T14:29:51.809Z,1017.78
2017-01-27T14:31:04.454Z,1017.78
2017-01-27T14:32:17.492Z,1017.78
2017-01-27T14:33:33.584Z,1017.72
2017-01-27T14:34:46.642Z,1017.71
2017-01-27T14:35:59.300Z,1017.73
2017-01-27T14:37:11.554Z,1017.73
2017-01-27T14:38:24.602Z,1017.69
2017-01-27T14:39:37.642Z,1017.73
2017-01-27T14:40:50.284Z,1017.74
2017-01-27T14:42:02.931Z,1017.72
2017-01-27T14:43:15.613Z,1017.72
2017-01-27T14:44:28.949Z,1017.73